createdAt,value
2019-03-04T00:02:21.697Z,3.93
2019-03-04T00:05:02.576Z,4.43
2019-03-04T00:07:31.048Z,8.70
2019-03-04T00:10:18.896Z,3.30
2019-03-04T00:13:06.709Z,4.97
2019-03-04T00:15:47.827Z,5.10
2019-03-04T00:18:16.631Z,6.13
2019-03-04T00:21:04.584Z,4.57
2019-03-04T00:23:45.808Z,5.50
2019-03-04T00:26:26.622Z,5.20
2019-03-04T00:29:07.324Z,4.37
2019-03-04T00:31:48.409Z,5.90
2019-03-04T00:34:29.187Z,4.77
2019-03-04T00:37:09.694Z,3.93
2019-03-04T00:39:50.264Z,5.37
2019-03-04T00:42:18.800Z,6.13
2019-03-04T00:45:27.354Z,3.10
2019-03-04T00:48:14.825Z,4.27
2019-03-04T00:50:55.165Z,5.47
2019-03-04T00:53:35.978Z,4.93
2019-03-04T00:56:16.680Z,4.97
2019-03-04T00:58:57.149Z,3.33
2019-03-04T01:01:37.957Z,4.73
2019-03-04T01:04:18.687Z,4.50
2019-03-04T01:06:59.325Z,3.30
2019-03-04T01:09:27.807Z,4.57
2019-03-04T01:12:08.869Z,4.90
2019-03-04T01:14:49.728Z,5.30
2019-03-04T01:17:30.156Z,5.00
2019-03-04T01:20:10.795Z,3.90
2019-03-04T01:22:51.664Z,3.70
2019-03-04T01:25:32.510Z,3.03
2019-03-04T01:28:00.979Z,4.70
2019-03-04T01:30:48.869Z,4.50
2019-03-04T01:33:36.665Z,4.00
2019-03-04T01:36:16.945Z,4.73
2019-03-04T01:38:57.773Z,2.83
2019-03-04T01:41:38.658Z,6.43
2019-03-04T01:44:19.412Z,2.83
2019-03-04T01:47:00.229Z,3.93
2019-03-04T01:49:41.077Z,2.33
2019-03-04T01:52:21.892Z,4.33
2019-03-04T01:55:02.663Z,3.10
2019-03-04T01:57:43.547Z,4.93
2019-03-04T02:00:24.444Z,2.53
2019-03-04T02:03:05.119Z,5.60
2019-03-04T02:05:46.101Z,1.77
2019-03-04T02:08:26.869Z,4.33
2019-03-04T02:11:07.309Z,3.27
2019-03-04T02:13:47.704Z,5.67
2019-03-04T02:16:27.963Z,3.10
2019-03-04T02:19:08.804Z,3.40
2019-03-04T02:21:49.430Z,3.30
2019-03-04T02:24:29.744Z,2.33
2019-03-04T02:27:10.642Z,2.47
2019-03-04T02:29:51.538Z,1.90
2019-03-04T02:32:31.991Z,1.40
2019-03-04T02:35:13.044Z,3.07
2019-03-04T02:37:53.992Z,1.10
2019-03-04T02:40:34.686Z,2.47
2019-03-04T02:43:15.810Z,3.37
2019-03-04T02:45:56.634Z,2.80
2019-03-04T02:48:37.406Z,1.07
2019-03-04T02:51:17.969Z,1.90
2019-03-04T02:53:58.439Z,2.30
2019-03-04T02:56:39.521Z,2.93
2019-03-04T02:59:08.072Z,1.57
2019-03-04T03:01:56.196Z,2.23
2019-03-04T03:04:37.482Z,2.40
2019-03-04T03:07:18.331Z,2.43
2019-03-04T03:09:59.943Z,1.30
2019-03-04T03:12:41.018Z,1.20
2019-03-04T03:15:22.266Z,2.50
2019-03-04T03:17:51.317Z,1.53
2019-03-04T03:20:39.453Z,0.77
2019-03-04T03:23:20.483Z,1.83
2019-03-04T03:26:01.065Z,2.27
2019-03-04T03:28:42.034Z,0.83
2019-03-04T03:31:23.059Z,1.43
2019-03-04T03:34:03.764Z,2.57
2019-03-04T03:36:44.658Z,1.57
2019-03-04T03:39:25.394Z,1.43
2019-03-04T03:42:06.542Z,1.63
2019-03-04T03:44:35.018Z,2.13
2019-03-04T03:47:22.820Z,2.30
2019-03-04T03:50:04.030Z,2.10
2019-03-04T03:52:44.507Z,1.67
2019-03-04T03:55:53.046Z,1.83
2019-03-04T03:58:40.927Z,2.27
2019-03-04T04:01:21.582Z,2.27
2019-03-04T04:04:02.357Z,1.47
2019-03-04T04:06:42.992Z,2.20
2019-03-04T04:09:23.891Z,2.37
2019-03-04T04:11:52.433Z,1.50
2019-03-04T04:14:21.044Z,2.27
2019-03-04T04:17:08.868Z,1.47
2019-03-04T04:19:56.728Z,2.10
2019-03-04T04:22:37.861Z,1.30
2019-03-04T04:25:18.813Z,2.43
2019-03-04T04:27:59.814Z,1.57
2019-03-04T04:30:40.686Z,5.23
2019-03-04T04:33:21.633Z,3.50
2019-03-04T04:36:02.499Z,2.60
2019-03-04T04:38:43.662Z,2.27
2019-03-04T04:41:24.099Z,2.17
2019-03-04T04:44:04.645Z,2.00
2019-03-04T04:46:45.387Z,2.37
2019-03-04T04:49:26.278Z,1.83
2019-03-04T04:52:07.164Z,3.43
2019-03-04T04:54:35.817Z,2.23
2019-03-04T04:57:23.657Z,2.37
2019-03-04T04:59:52.134Z,1.80
2019-03-04T05:02:40.077Z,3.63
2019-03-04T05:05:21.162Z,2.43
2019-03-04T05:08:01.613Z,3.80
2019-03-04T05:10:42.462Z,1.90
2019-03-04T05:13:23.369Z,1.53
2019-03-04T05:16:04.405Z,3.57
2019-03-04T05:18:45.177Z,5.30
2019-03-04T05:21:26.220Z,2.63
2019-03-04T05:23:54.720Z,3.83
2019-03-04T05:26:42.586Z,3.63
2019-03-04T05:29:23.744Z,5.50
2019-03-04T05:32:04.520Z,4.13
2019-03-04T05:34:44.999Z,2.07
2019-03-04T05:37:25.896Z,2.63
2019-03-04T05:39:54.451Z,3.80
2019-03-04T05:42:42.376Z,2.63
2019-03-04T05:45:22.689Z,3.20
2019-03-04T05:48:03.244Z,4.33
2019-03-04T05:50:44.197Z,3.77
2019-03-04T05:53:12.679Z,1.80
2019-03-04T05:56:00.506Z,0.90
2019-03-04T05:58:28.960Z,1.50
2019-03-04T06:01:37.505Z,6.17
2019-03-04T06:04:17.800Z,7.33
2019-03-04T06:07:00.485Z,4.73
2019-03-04T06:09:41.322Z,10.47
2019-03-04T06:12:09.807Z,3.40
2019-03-04T06:14:57.600Z,4.00
2019-03-04T06:17:45.401Z,6.63
2019-03-04T06:20:26.439Z,4.77
2019-03-04T06:23:07.164Z,3.33
2019-03-04T06:25:35.627Z,6.37
2019-03-04T06:28:23.416Z,3.17
2019-03-04T06:31:03.747Z,5.93
2019-03-04T06:33:44.167Z,4.20
2019-03-04T06:36:24.886Z,3.23
2019-03-04T06:39:05.646Z,4.83
2019-03-04T06:41:46.389Z,4.30
2019-03-04T06:44:27.260Z,7.70
2019-03-04T06:47:08.179Z,3.27
2019-03-04T06:49:47.014Z,2.57
2019-03-04T06:52:27.442Z,4.83
2019-03-04T06:58:18.891Z,4.97
2019-03-04T07:06:56.483Z,3.73
2019-03-04T07:09:39.611Z,4.60
2019-03-04T07:12:22.291Z,3.67
2019-03-04T07:15:02.759Z,2.90
2019-03-04T07:17:43.992Z,8.03
2019-03-04T07:20:24.441Z,7.77
2019-03-04T07:23:05.293Z,8.87
2019-03-04T07:25:45.796Z,4.57
2019-03-04T07:28:26.668Z,5.20
2019-03-04T07:31:07.182Z,7.03
2019-03-04T07:33:35.623Z,5.93
2019-03-04T07:36:44.148Z,7.40
2019-03-04T07:39:31.975Z,8.77
2019-03-04T07:42:13.066Z,7.30
2019-03-04T07:44:41.598Z,6.17
2019-03-04T07:47:29.391Z,6.53
2019-03-04T07:50:10.058Z,5.50
2019-03-04T07:52:50.564Z,9.67
2019-03-04T07:55:31.352Z,7.30
2019-03-04T07:58:12.239Z,5.93
2019-03-04T08:00:53.298Z,6.37
2019-03-04T08:03:33.830Z,10.60
2019-03-04T08:06:14.991Z,6.37
2019-03-04T08:08:55.541Z,6.30
2019-03-04T08:11:36.341Z,6.83
2019-03-04T08:14:17.297Z,4.97
2019-03-04T08:16:58.237Z,11.07
2019-03-04T08:19:38.764Z,9.87
2019-03-04T08:22:19.645Z,11.50
2019-03-04T08:25:00.319Z,7.53
2019-03-04T08:27:40.970Z,10.87
2019-03-04T08:33:06.616Z,6.77
2019-03-04T08:35:54.409Z,9.40
2019-03-04T08:38:35.557Z,10.13
2019-03-04T08:41:16.316Z,7.07
2019-03-04T08:43:57.273Z,10.53
2019-03-04T08:46:38.153Z,10.60
2019-03-04T08:49:19.050Z,7.17
2019-03-04T08:51:59.885Z,11.07
2019-03-04T08:54:40.364Z,4.70
2019-03-04T08:57:21.269Z,2.10
2019-03-04T08:59:49.735Z,3.07
2019-03-04T09:02:37.628Z,1.82
2019-03-04T09:05:25.435Z,0.77
2019-03-04T09:08:07.368Z,1.70
2019-03-04T09:10:47.962Z,3.37
2019-03-04T09:13:29.760Z,2.10
2019-03-04T09:16:10.641Z,1.63
2019-03-04T09:18:51.361Z,0.50
2019-03-04T09:21:31.990Z,2.80
2019-03-04T09:24:12.619Z,0.93
2019-03-04T09:26:53.087Z,1.00
2019-03-04T09:29:33.761Z,2.90
2019-03-04T09:32:14.601Z,1.03
2019-03-04T09:34:55.514Z,1.13
2019-03-04T09:37:36.343Z,0.60
2019-03-04T09:40:44.941Z,0.40
2019-03-04T09:43:32.799Z,0.87
2019-03-04T09:46:13.579Z,0.30
2019-03-04T09:48:53.975Z,1.93
2019-03-04T09:51:34.651Z,1.90
2019-03-04T09:54:15.143Z,0.53
2019-03-04T09:56:55.681Z,1.70
2019-03-04T09:59:24.278Z,1.57
2019-03-04T10:02:12.149Z,1.43
2019-03-04T10:05:19.303Z,1.90
2019-03-04T10:11:14.382Z,1.50
2019-03-04T10:13:55.078Z,0.97
2019-03-04T10:16:35.690Z,0.33
2019-03-04T10:19:16.657Z,1.90
2019-03-04T10:31:27.396Z,2.03
2019-03-04T10:34:08.244Z,2.00
2019-03-04T10:36:49.305Z,2.07
2019-03-04T10:39:30.055Z,2.90
2019-03-04T10:42:11.297Z,3.47
2019-03-04T10:44:51.794Z,4.80
2019-03-04T10:47:32.759Z,6.03
2019-03-04T10:50:13.748Z,1.70
2019-03-04T10:52:54.753Z,5.53
2019-03-04T11:01:38.418Z,5.47
2019-03-04T11:04:19.097Z,6.80
2019-03-04T11:06:59.873Z,5.13
2019-03-04T11:09:40.590Z,4.03
2019-03-04T11:12:21.583Z,4.90
2019-03-04T11:15:02.262Z,6.53
2019-03-04T11:17:43.061Z,10.73
2019-03-04T11:20:24.206Z,4.73
2019-03-04T11:22:52.862Z,8.03
2019-03-04T11:25:40.855Z,6.17
2019-03-04T11:28:09.388Z,6.00
2019-03-04T11:30:57.869Z,4.93
2019-03-04T11:33:38.788Z,9.03
2019-03-04T11:36:19.388Z,6.77
2019-03-04T11:39:00.047Z,7.23
2019-03-04T11:41:40.860Z,7.37
2019-03-04T11:44:21.883Z,6.53
2019-03-04T11:47:02.441Z,5.23
2019-03-04T11:49:43.309Z,10.77
2019-03-04T11:52:24.154Z,9.13
2019-03-04T11:55:04.817Z,11.43
2019-03-04T11:57:45.659Z,15.77
2019-03-04T12:00:27.852Z,9.73
2019-03-04T12:03:08.685Z,10.87
2019-03-04T12:05:49.656Z,13.00
2019-03-04T12:08:30.525Z,9.03
2019-03-04T12:11:11.021Z,8.50
2019-03-04T12:13:51.586Z,7.33
2019-03-04T12:16:32.095Z,11.07
2019-03-04T12:19:12.895Z,8.73
2019-03-04T12:21:53.570Z,11.53
2019-03-04T12:24:34.433Z,7.80
2019-03-04T12:27:15.404Z,5.77
2019-03-04T12:29:56.012Z,9.07
2019-03-04T12:32:36.712Z,10.93
2019-03-04T12:35:17.717Z,10.33
2019-03-04T12:37:58.374Z,7.77
2019-03-04T12:40:39.050Z,8.30
2019-03-04T12:43:19.567Z,11.63
2019-03-04T12:46:00.500Z,11.03
2019-03-04T12:48:41.178Z,5.43
2019-03-04T12:51:09.712Z,12.97
2019-03-04T12:53:57.523Z,7.53
2019-03-04T12:56:37.811Z,11.97
2019-03-04T12:59:20.488Z,9.37
2019-03-04T13:02:01.654Z,8.10
2019-03-04T13:04:42.443Z,15.83
2019-03-04T13:07:10.977Z,8.67
2019-03-04T13:09:58.842Z,7.70
2019-03-04T13:12:39.486Z,8.93
2019-03-04T13:21:30.536Z,14.53
2019-03-04T13:24:11.412Z,10.87
2019-03-04T13:26:52.270Z,7.90
2019-03-04T13:29:32.909Z,7.90
2019-03-04T13:32:13.611Z,7.97
2019-03-04T13:34:54.725Z,11.53
2019-03-04T13:37:37.876Z,7.17
2019-03-04T13:40:18.328Z,7.07
2019-03-04T13:42:59.254Z,8.10
2019-03-04T13:45:39.967Z,4.77
2019-03-04T13:48:20.727Z,6.47
2019-03-04T13:51:01.446Z,12.40
2019-03-04T13:53:42.182Z,8.53
2019-03-04T13:56:23.229Z,10.40
2019-03-04T13:59:03.914Z,7.77
2019-03-04T14:01:44.873Z,12.53
2019-03-04T14:04:25.532Z,7.90
2019-03-04T14:07:06.305Z,7.20
2019-03-04T14:09:47.068Z,7.00
2019-03-04T14:12:28.088Z,7.67
2019-03-04T14:15:08.977Z,9.43
2019-03-04T14:17:49.639Z,7.30
2019-03-04T14:20:30.652Z,9.53
2019-03-04T14:23:11.465Z,8.40
2019-03-04T14:25:52.075Z,9.27
2019-03-04T14:28:33.200Z,9.33
2019-03-04T14:34:22.294Z,5.67
2019-03-04T14:37:03.327Z,6.30
2019-03-04T14:39:44.611Z,8.47
2019-03-04T14:42:25.612Z,6.70
2019-03-04T14:45:06.522Z,10.27
2019-03-04T14:47:46.995Z,7.33
2019-03-04T14:50:28.499Z,12.07
2019-03-04T14:53:09.717Z,12.03
2019-03-04T14:55:50.607Z,10.57
2019-03-04T14:58:31.103Z,7.37
2019-03-04T15:01:11.920Z,6.27
2019-03-04T15:03:52.681Z,6.40
2019-03-04T15:06:33.268Z,8.60
2019-03-04T15:09:15.019Z,12.50
2019-03-04T15:11:56.163Z,10.20
2019-03-04T15:14:36.860Z,6.37
2019-03-04T15:17:17.540Z,8.50
2019-03-04T15:19:57.867Z,12.13
2019-03-04T15:22:34.569Z,5.50
2019-03-04T15:25:35.251Z,7.13
2019-03-04T15:28:15.568Z,5.13
2019-03-04T15:30:56.512Z,3.90
2019-03-04T15:33:37.256Z,7.37
2019-03-04T15:36:17.603Z,5.67
2019-03-04T15:38:58.597Z,6.07
2019-03-04T15:41:40.416Z,4.47
2019-03-04T15:44:20.891Z,9.97
2019-03-04T15:47:01.640Z,10.07
2019-03-04T15:49:42.299Z,6.93
2019-03-04T15:52:23.077Z,10.10
2019-03-04T15:55:03.547Z,8.30
2019-03-04T15:57:44.358Z,6.23
2019-03-04T16:00:25.480Z,4.97
2019-03-04T16:03:06.961Z,10.00
2019-03-04T16:05:47.548Z,9.37
2019-03-04T16:08:30.025Z,7.33
2019-03-04T16:11:10.936Z,6.43
2019-03-04T16:13:55.145Z,5.43
2019-03-04T16:16:34.348Z,8.07
2019-03-04T16:19:15.237Z,6.03
2019-03-04T16:21:55.943Z,9.43
2019-03-04T16:24:36.812Z,8.80
2019-03-04T16:27:17.512Z,7.03
2019-03-04T16:29:58.213Z,6.43
2019-03-04T16:32:38.719Z,10.03
2019-03-04T16:35:19.252Z,7.80
2019-03-04T16:38:00.093Z,5.90
2019-03-04T16:40:41.056Z,6.33
2019-03-04T16:43:21.526Z,6.37
2019-03-04T16:46:02.229Z,7.40
2019-03-04T16:48:42.672Z,5.10
2019-03-04T16:51:23.396Z,4.53
2019-03-04T16:54:04.079Z,4.47
2019-03-04T16:56:44.740Z,2.67
2019-03-04T16:59:25.539Z,5.20
2019-03-04T17:02:06.685Z,6.70
2019-03-04T17:04:47.482Z,8.90
2019-03-04T17:07:28.055Z,7.23
2019-03-04T17:10:08.907Z,4.33
2019-03-04T17:12:49.460Z,4.27
2019-03-04T17:15:30.195Z,3.87
2019-03-04T17:18:11.057Z,4.53
2019-03-04T17:20:51.816Z,6.90
2019-03-04T17:23:32.616Z,5.97
2019-03-04T17:26:13.563Z,4.40
2019-03-04T17:28:54.472Z,2.97
2019-03-04T17:31:35.489Z,6.93
2019-03-04T17:34:16.478Z,9.20
2019-03-04T17:36:57.463Z,6.00
2019-03-04T17:39:38.262Z,6.07
2019-03-04T17:42:18.845Z,9.10
2019-03-04T17:44:59.915Z,5.67
2019-03-04T17:47:40.568Z,10.50
2019-03-04T17:50:21.513Z,6.57
2019-03-04T17:53:02.385Z,9.17
2019-03-04T17:55:43.105Z,7.73
2019-03-04T17:58:24.135Z,8.37
2019-03-04T18:01:05.204Z,7.47
2019-03-04T18:03:45.964Z,7.57
2019-03-04T18:06:26.849Z,6.57
2019-03-04T18:09:07.377Z,7.60
2019-03-04T18:11:48.185Z,5.20
2019-03-04T18:14:29.177Z,8.57
2019-03-04T18:17:09.738Z,11.13
2019-03-04T18:19:38.197Z,8.07
2019-03-04T18:22:26.030Z,11.93
2019-03-04T18:25:33.238Z,7.93
2019-03-04T18:28:14.449Z,14.70
2019-03-04T18:30:55.028Z,9.10
2019-03-04T18:33:35.870Z,12.43
2019-03-04T18:36:16.705Z,7.70
2019-03-04T18:38:57.417Z,7.80
2019-03-04T18:41:38.501Z,8.27
2019-03-04T18:44:19.319Z,7.63
2019-03-04T18:47:00.178Z,12.63
2019-03-04T18:49:41.185Z,7.33
2019-03-04T18:52:21.909Z,6.67
2019-03-04T18:55:02.711Z,6.63
2019-03-04T18:57:43.762Z,8.50
2019-03-04T19:00:24.366Z,12.13
2019-03-04T19:03:05.096Z,9.13
2019-03-04T19:05:46.051Z,9.93
2019-03-04T19:08:27.745Z,8.20
2019-03-04T19:10:56.208Z,6.20
2019-03-04T19:13:44.055Z,7.77
2019-03-04T19:16:31.908Z,6.47
2019-03-04T19:19:13.165Z,6.27
2019-03-04T19:21:55.455Z,7.17
2019-03-04T19:24:35.844Z,8.00
2019-03-04T19:27:16.497Z,6.77
2019-03-04T19:29:57.070Z,5.87
2019-03-04T19:32:37.563Z,6.73
2019-03-04T19:35:18.333Z,8.43
2019-03-04T19:38:02.212Z,6.20
2019-03-04T19:40:43.201Z,7.43
2019-03-04T19:43:32.707Z,5.67
2019-03-04T19:46:06.692Z,4.37
2019-03-04T19:48:47.193Z,5.93
2019-03-04T19:51:28.134Z,5.03
2019-03-04T19:54:08.668Z,3.43
2019-03-04T19:56:49.561Z,3.67
2019-03-04T19:59:18.088Z,5.63
2019-03-04T20:02:05.979Z,4.17
2019-03-04T20:04:53.775Z,1.63
2019-03-04T20:10:41.111Z,3.63
2019-03-04T20:13:21.710Z,3.67
2019-03-04T20:16:02.520Z,2.13
2019-03-04T20:18:43.127Z,2.53
2019-03-04T20:21:23.963Z,4.93
2019-03-04T20:24:04.799Z,2.63
2019-03-04T20:26:45.606Z,2.00
2019-03-04T20:29:25.966Z,3.67
2019-03-04T20:32:06.637Z,4.77
2019-03-04T20:34:47.325Z,4.87
2019-03-04T20:37:28.033Z,4.30
2019-03-04T20:40:08.698Z,3.93
2019-03-04T20:42:51.053Z,4.37
2019-03-04T20:45:31.862Z,5.93
2019-03-04T20:48:12.551Z,6.37
2019-03-04T20:50:53.399Z,3.17
2019-03-04T20:53:21.856Z,5.07
2019-03-04T20:56:09.683Z,5.57
2019-03-04T20:58:57.486Z,6.43
2019-03-04T21:01:37.952Z,10.03
2019-03-04T21:04:18.780Z,6.90
2019-03-04T21:06:59.342Z,9.57
2019-03-04T21:12:36.535Z,5.93
2019-03-04T21:15:17.260Z,6.67
2019-03-04T21:17:57.827Z,8.67
2019-03-04T21:20:38.936Z,4.77
2019-03-04T21:23:19.553Z,13.20
2019-03-04T21:26:00.469Z,7.87
2019-03-04T21:28:41.226Z,14.00
2019-03-04T21:31:21.995Z,7.80
2019-03-04T21:37:25.311Z,6.07
2019-03-04T21:40:07.260Z,6.97
2019-03-04T21:42:48.118Z,11.03
2019-03-04T21:45:30.390Z,6.73
2019-03-04T21:48:11.358Z,10.00
2019-03-04T21:50:52.299Z,8.13
2019-03-04T21:54:00.846Z,8.00
2019-03-04T21:59:55.948Z,9.20
2019-03-04T22:02:36.675Z,6.57
2019-03-04T22:05:17.648Z,6.60
2019-03-04T22:07:58.613Z,14.53
2019-03-04T22:10:39.203Z,10.23
2019-03-04T22:13:19.901Z,11.47
2019-03-04T22:16:00.817Z,10.67
2019-03-04T22:18:41.198Z,7.47
2019-03-04T22:21:21.706Z,11.00
2019-03-04T22:24:02.324Z,9.53
2019-03-04T22:26:42.962Z,8.23
2019-03-04T22:29:23.997Z,11.53
2019-03-04T22:31:52.464Z,9.63
2019-03-04T22:34:40.285Z,16.43
2019-03-04T22:37:28.222Z,11.60
2019-03-04T22:40:15.725Z,11.10
2019-03-04T22:45:55.123Z,11.50
2019-03-04T22:48:35.957Z,13.27
2019-03-04T22:51:16.582Z,14.27
2019-03-04T22:53:57.198Z,15.03
2019-03-04T22:56:37.970Z,12.40
2019-03-04T22:59:19.142Z,11.63
2019-03-04T23:02:27.698Z,12.17
2019-03-04T23:05:15.504Z,8.70
2019-03-04T23:07:56.595Z,13.73
2019-03-04T23:10:37.454Z,11.83
2019-03-04T23:13:26.810Z,12.73
2019-03-04T23:19:03.267Z,12.97
2019-03-04T23:21:44.174Z,10.03
2019-03-04T23:24:24.699Z,12.73
2019-03-04T23:27:05.336Z,16.27
2019-03-04T23:29:33.806Z,9.40
2019-03-04T23:32:21.614Z,23.33
2019-03-04T23:35:02.422Z,12.23
2019-03-04T23:37:31.054Z,10.43
2019-03-04T23:40:19.043Z,11.53
2019-03-04T23:43:06.991Z,12.13
2019-03-04T23:45:48.265Z,13.93
2019-03-04T23:48:28.991Z,14.83
2019-03-04T23:51:09.910Z,11.53
2019-03-04T23:53:50.713Z,12.40
2019-03-04T23:56:19.556Z,13.30
2019-03-04T23:59:07.431Z,12.40
